Port Columbus International Airport
KCMH : now visible

Airfield :











YOU CAN JOIN US ON...

 
LOGIN :

Register | Disclaimer

   EN    FR    IT 

 









Legend :    VFR   Marginal VFR   IFR   Intensive IFR   Very Intensive IFR
Visi :
Ceiling :
>= 8 km
>= 3000ft
5 to 8 km
1000 to 3000 ft
1500m to 5 km
500 to 1000 ft
800 to 1500m
200 to 500 ft
< 800m
< 200 ft
Symbols :   Thunderstorms  Fog  Heavy snow  Heavy precipitations  Wind > 20 kt







- Airport Elevation : 815 ft
- IATA code : CMH


KCMH - Port Columbus International

CURRENT METAR :
  • 201951Z 16007KT 10SM FEW060 SCT075 SCT250 31/17 A3013 RMK AO2 SLP195 T03110167

EXPIRED METARs :
  • 201851Z 14009KT 10SM SCT055 SCT250 29/17 A3014 RMK AO2 SLP198 T02940167
  • 201751Z 19005KT 10SM FEW070 FEW200 29/17 A3016 RMK AO2 SLP206 T02890172 10294 20189 58011

TAF KCMH
Valid from the 20 at 18:00 until the 21 at 18:00 UTC


201736Z 2018/2118 18005KT P6SM SCT070
FM210100 17003KT P6SM FEW250
FM211500 23008KT P6SM VCSH BKN040 OVC080
No reported NOTAMs for that airfield.



MET'MAP, your aeronautical weather chart ! - Copyright ORBIFLY December 2007 - Disclaimer

ORBIFLY MET'MAP TEAM :

Programming & Development : Alexandra Zaïnal
Concept & Development : Baudouin d'Aumeries
Co-Development & Prog : Marc-Olivier Méhu
Technical & hardware support : Manuel Goepfert

Contact : metmap@orbifly.com




SOURCES & CREDITS :

   NOAA       Earth
Advisory